createdAt,value
2023-05-24T00:00:39.671Z,10.72
2023-05-24T00:01:39.561Z,10.71
2023-05-24T00:02:39.618Z,10.71
2023-05-24T00:03:39.768Z,10.71
2023-05-24T00:04:39.594Z,10.71
2023-05-24T00:05:39.539Z,10.72
2023-05-24T00:06:39.523Z,10.71
2023-05-24T00:07:39.514Z,10.71
2023-05-24T00:08:39.506Z,10.72
2023-05-24T00:09:39.498Z,10.72
2023-05-24T00:10:39.497Z,10.74
2023-05-24T00:11:39.470Z,10.75
2023-05-24T00:12:39.484Z,10.74
2023-05-24T00:13:39.470Z,10.75
2023-05-24T00:14:39.447Z,10.75
2023-05-24T00:15:39.437Z,10.74
2023-05-24T00:16:39.479Z,10.74
2023-05-24T00:17:39.476Z,10.71
2023-05-24T00:18:39.444Z,10.69
2023-05-24T00:19:39.392Z,10.64
2023-05-24T00:20:39.666Z,10.64
2023-05-24T00:21:39.382Z,10.61
2023-05-24T00:22:39.404Z,10.59
2023-05-24T00:23:39.346Z,10.56
2023-05-24T00:24:39.332Z,10.54
2023-05-24T00:25:39.323Z,10.51
2023-05-24T00:26:39.336Z,10.49
2023-05-24T00:27:39.311Z,10.44
2023-05-24T00:28:39.314Z,10.42
2023-05-24T00:29:39.290Z,10.40
2023-05-24T00:30:39.397Z,10.37
2023-05-24T00:31:39.337Z,10.37
2023-05-24T00:32:39.321Z,10.34
2023-05-24T00:33:39.279Z,10.35
2023-05-24T00:34:39.240Z,10.35
2023-05-24T00:35:39.257Z,10.35
2023-05-24T00:36:39.217Z,10.33
2023-05-24T00:37:39.223Z,10.33
2023-05-24T00:38:39.250Z,10.34
2023-05-24T00:39:39.196Z,10.34
2023-05-24T00:40:39.178Z,10.34
2023-05-24T00:41:39.192Z,10.35
2023-05-24T00:42:39.152Z,10.34
2023-05-24T00:43:39.155Z,10.35
2023-05-24T00:44:39.187Z,10.33
2023-05-24T00:45:39.148Z,10.31
2023-05-24T00:46:39.259Z,10.33
2023-05-24T00:47:39.179Z,10.33
2023-05-24T00:48:39.102Z,10.30
2023-05-24T00:49:39.117Z,10.28
2023-05-24T00:50:39.089Z,10.30
2023-05-24T00:51:39.103Z,10.30
2023-05-24T00:52:39.072Z,10.31
2023-05-24T00:53:39.050Z,10.30
2023-05-24T00:54:39.054Z,10.26
2023-05-24T00:55:39.052Z,10.23
2023-05-24T00:56:39.013Z,10.25
2023-05-24T00:57:39.009Z,10.25
2023-05-24T00:58:38.980Z,10.23
2023-05-24T00:59:38.979Z,10.23
2023-05-24T01:00:39.011Z,10.25
2023-05-24T01:01:39.030Z,10.22
2023-05-24T01:02:39.075Z,10.22
2023-05-24T01:03:39.060Z,10.19
2023-05-24T01:04:38.949Z,10.16
2023-05-24T01:05:38.938Z,10.15
2023-05-24T01:06:38.958Z,10.12
2023-05-24T01:07:38.919Z,10.09
2023-05-24T01:08:39.018Z,10.09
2023-05-24T01:09:38.913Z,10.07
2023-05-24T01:10:38.884Z,10.05
2023-05-24T01:11:38.882Z,10.05
2023-05-24T01:12:38.895Z,10.05
2023-05-24T01:13:38.851Z,10.02
2023-05-24T01:14:38.852Z,10.01
2023-05-24T01:15:38.884Z,9.99
2023-05-24T01:16:38.892Z,9.98
2023-05-24T01:17:38.880Z,9.98
2023-05-24T01:18:38.810Z,9.98
2023-05-24T01:19:38.798Z,9.95
2023-05-24T01:20:39.031Z,9.94
2023-05-24T01:21:38.825Z,9.91
2023-05-24T01:22:38.751Z,9.91
2023-05-24T01:23:38.765Z,9.87
2023-05-24T01:24:38.728Z,9.86
2023-05-24T01:25:38.735Z,9.86
2023-05-24T01:26:38.716Z,9.84
2023-05-24T01:27:38.730Z,9.82
2023-05-24T01:28:38.752Z,9.80
2023-05-24T01:29:38.757Z,9.79
2023-05-24T01:30:38.686Z,9.80
2023-05-24T01:31:38.699Z,9.80
2023-05-24T01:32:38.766Z,9.82
2023-05-24T01:33:38.661Z,9.82
2023-05-24T01:34:38.745Z,9.83
2023-05-24T01:35:38.635Z,9.82
2023-05-24T01:36:38.602Z,9.80
2023-05-24T01:37:38.594Z,9.83
2023-05-24T01:38:38.601Z,9.86
2023-05-24T01:39:38.633Z,9.83
2023-05-24T01:40:38.568Z,9.83
2023-05-24T01:41:38.562Z,9.80
2023-05-24T01:42:38.556Z,9.76
2023-05-24T01:43:38.547Z,9.74
2023-05-24T01:44:38.540Z,9.74
2023-05-24T01:45:38.548Z,9.72
2023-05-24T01:46:38.614Z,9.68
2023-05-24T01:47:38.537Z,9.65
2023-05-24T01:48:38.485Z,9.62
2023-05-24T01:49:38.465Z,9.64
2023-05-24T01:50:38.473Z,9.62
2023-05-24T01:51:38.476Z,9.62
2023-05-24T01:52:38.448Z,9.59
2023-05-24T01:53:38.444Z,9.58
2023-05-24T01:54:38.433Z,9.58
2023-05-24T01:55:38.620Z,9.54
2023-05-24T01:56:38.414Z,9.51
2023-05-24T01:57:38.416Z,9.50
2023-05-24T01:58:38.411Z,9.51
2023-05-24T01:59:38.378Z,9.48
2023-05-24T02:00:38.382Z,9.48
2023-05-24T02:01:38.436Z,9.51
2023-05-24T02:02:38.415Z,9.54
2023-05-24T02:03:38.339Z,9.54
2023-05-24T02:04:38.314Z,9.54
2023-05-24T02:05:38.300Z,9.56
2023-05-24T02:06:38.305Z,9.59
2023-05-24T02:07:38.324Z,9.61
2023-05-24T02:08:38.287Z,9.61
2023-05-24T02:09:38.280Z,9.62
2023-05-24T02:10:38.272Z,9.65
2023-05-24T02:11:38.246Z,9.65
2023-05-24T02:12:38.237Z,9.68
2023-05-24T02:13:38.265Z,9.69
2023-05-24T02:14:38.206Z,9.72
2023-05-24T02:15:38.217Z,9.72
2023-05-24T02:16:38.263Z,9.72
2023-05-24T02:17:38.235Z,9.73
2023-05-24T02:18:38.219Z,9.73
2023-05-24T02:19:38.194Z,9.74
2023-05-24T02:20:38.230Z,9.73
2023-05-24T02:21:38.158Z,9.79
2023-05-24T02:22:38.139Z,9.79
2023-05-24T02:23:38.147Z,9.82
2023-05-24T02:24:38.110Z,9.84
2023-05-24T02:25:38.099Z,9.86
2023-05-24T02:26:38.096Z,9.87
2023-05-24T02:27:38.085Z,9.91
2023-05-24T02:28:38.098Z,9.91
2023-05-24T02:29:38.074Z,9.94
2023-05-24T02:30:38.046Z,9.95
2023-05-24T02:31:38.207Z,9.95
2023-05-24T02:32:38.080Z,9.95
2023-05-24T02:33:38.096Z,9.92
2023-05-24T02:34:38.054Z,9.92
2023-05-24T02:35:38.013Z,9.89
2023-05-24T02:36:38.013Z,9.89
2023-05-24T02:37:38.009Z,9.86
2023-05-24T02:38:38.019Z,9.84
2023-05-24T02:39:37.977Z,9.83
2023-05-24T02:40:37.949Z,9.80
2023-05-24T02:41:37.944Z,9.79
2023-05-24T02:42:37.934Z,9.76
2023-05-24T02:43:37.932Z,9.73
2023-05-24T02:44:37.955Z,9.74
2023-05-24T02:45:37.920Z,9.73
2023-05-24T02:46:37.953Z,9.73
2023-05-24T02:47:37.917Z,9.72
2023-05-24T02:48:37.884Z,9.72
2023-05-24T02:49:37.871Z,9.73
2023-05-24T02:50:37.912Z,9.74
2023-05-24T02:51:37.867Z,9.77
2023-05-24T02:52:37.839Z,9.76
2023-05-24T02:53:37.837Z,9.76
2023-05-24T02:54:37.830Z,9.80
2023-05-24T02:55:37.806Z,9.79
2023-05-24T02:56:37.811Z,9.80
2023-05-24T02:57:37.784Z,9.82
2023-05-24T02:58:37.769Z,9.82
2023-05-24T02:59:38.054Z,9.83
2023-05-24T03:00:37.749Z,9.82
2023-05-24T03:01:37.798Z,9.80
2023-05-24T03:02:37.903Z,9.82
2023-05-24T03:03:37.823Z,9.79
2023-05-24T03:04:37.713Z,9.80
2023-05-24T03:05:37.755Z,9.80
2023-05-24T03:06:37.703Z,9.83
2023-05-24T03:07:37.695Z,9.82
2023-05-24T03:08:37.690Z,9.83
2023-05-24T03:09:37.664Z,9.83
2023-05-24T03:10:37.670Z,9.80
2023-05-24T03:11:37.645Z,9.79
2023-05-24T03:12:37.621Z,9.77
2023-05-24T03:13:37.629Z,9.76
2023-05-24T03:14:37.600Z,9.73
2023-05-24T03:15:37.663Z,9.69
2023-05-24T03:16:37.783Z,9.69
2023-05-24T03:17:37.714Z,9.68
2023-05-24T03:18:37.576Z,9.66
2023-05-24T03:19:37.557Z,9.68
2023-05-24T03:20:37.610Z,9.66
2023-05-24T03:21:37.546Z,9.66
2023-05-24T03:22:37.536Z,9.68
2023-05-24T03:23:37.520Z,9.68
2023-05-24T03:24:37.507Z,9.69
2023-05-24T03:25:37.533Z,9.68
2023-05-24T03:26:37.478Z,9.66
2023-05-24T03:27:37.487Z,9.66
2023-05-24T03:28:37.491Z,9.65
2023-05-24T03:29:37.465Z,9.65
2023-05-24T03:30:37.463Z,9.65
2023-05-24T03:31:37.539Z,9.65
2023-05-24T03:32:37.465Z,9.62
2023-05-24T03:33:37.431Z,9.62
2023-05-24T03:34:37.426Z,9.62
2023-05-24T03:35:37.395Z,9.64
2023-05-24T03:36:37.370Z,9.64
2023-05-24T03:37:37.395Z,9.64
2023-05-24T03:38:37.377Z,9.64
2023-05-24T03:39:37.358Z,9.66
2023-05-24T03:40:37.333Z,9.66
2023-05-24T03:41:37.349Z,9.66
2023-05-24T03:42:37.368Z,9.68
2023-05-24T03:43:37.334Z,9.72
2023-05-24T03:44:37.313Z,9.72
2023-05-24T03:45:39.727Z,9.74
2023-05-24T03:46:37.334Z,9.76
2023-05-24T03:47:37.360Z,9.76
2023-05-24T03:48:37.276Z,9.74
2023-05-24T03:49:37.268Z,9.77
2023-05-24T03:50:37.252Z,9.77
2023-05-24T03:51:37.249Z,9.77
2023-05-24T03:52:37.236Z,9.79
2023-05-24T03:53:37.250Z,9.77
2023-05-24T03:54:37.220Z,9.72
2023-05-24T03:55:37.203Z,9.69
2023-05-24T03:56:37.203Z,9.66
2023-05-24T03:57:37.197Z,9.68
2023-05-24T03:58:37.176Z,9.65
2023-05-24T03:59:38.758Z,9.65
2023-05-24T04:00:37.147Z,9.66
2023-05-24T04:01:37.128Z,9.66
2023-05-24T04:02:37.197Z,9.68
2023-05-24T04:03:37.183Z,9.69
2023-05-24T04:04:37.097Z,9.68
2023-05-24T04:05:37.124Z,9.72
2023-05-24T04:06:37.076Z,9.72
2023-05-24T04:07:37.094Z,9.72
2023-05-24T04:08:37.060Z,9.69
2023-05-24T04:09:37.075Z,9.73
2023-05-24T04:10:37.049Z,9.77
2023-05-24T04:11:37.083Z,9.77
2023-05-24T04:12:37.028Z,9.79
2023-05-24T04:13:37.029Z,9.80
2023-05-24T04:14:37.019Z,9.80
2023-05-24T04:15:36.995Z,9.80
2023-05-24T04:16:37.036Z,9.80
2023-05-24T04:17:37.080Z,9.79
2023-05-24T04:18:37.022Z,9.82
2023-05-24T04:19:36.966Z,9.82
2023-05-24T04:20:36.995Z,9.82
2023-05-24T04:21:36.972Z,9.84
2023-05-24T04:22:36.939Z,9.84
2023-05-24T04:23:36.908Z,9.84
2023-05-24T04:24:36.906Z,9.87
2023-05-24T04:25:36.876Z,9.86
2023-05-24T04:26:36.897Z,9.87
2023-05-24T04:27:36.865Z,9.84
2023-05-24T04:28:36.852Z,9.84
2023-05-24T04:29:36.840Z,9.83
2023-05-24T04:30:36.883Z,9.84
2023-05-24T04:31:36.953Z,9.82
2023-05-24T04:32:36.939Z,9.82
2023-05-24T04:33:36.840Z,9.80
2023-05-24T04:34:36.819Z,9.82
2023-05-24T04:35:36.811Z,9.83
2023-05-24T04:36:36.793Z,9.82
2023-05-24T04:37:36.830Z,9.82
2023-05-24T04:38:36.770Z,9.83
2023-05-24T04:39:36.772Z,9.82
2023-05-24T04:40:36.744Z,9.79
2023-05-24T04:41:36.717Z,9.76
2023-05-24T04:42:36.711Z,9.72
2023-05-24T04:43:36.741Z,9.72
2023-05-24T04:44:36.681Z,9.72
2023-05-24T04:45:36.692Z,9.73
2023-05-24T04:46:36.727Z,9.73
2023-05-24T04:47:36.718Z,9.73
2023-05-24T04:48:36.690Z,9.74
2023-05-24T04:49:36.687Z,9.74
2023-05-24T04:50:36.641Z,9.74
2023-05-24T04:51:36.640Z,9.73
2023-05-24T04:52:36.635Z,9.73
2023-05-24T04:53:36.625Z,9.73
2023-05-24T04:54:36.653Z,9.72
2023-05-24T04:55:36.596Z,9.68
2023-05-24T04:56:36.585Z,9.66
2023-05-24T04:57:36.564Z,9.66
2023-05-24T04:58:39.291Z,9.65
2023-05-24T04:59:36.558Z,9.64
2023-05-24T05:00:36.546Z,9.65
2023-05-24T05:01:36.573Z,9.65
2023-05-24T05:02:36.613Z,9.64
2023-05-24T05:03:36.617Z,9.66
2023-05-24T05:04:36.541Z,9.68
2023-05-24T05:05:36.493Z,9.69
2023-05-24T05:06:36.479Z,9.69
2023-05-24T05:07:36.472Z,9.65
2023-05-24T05:08:36.463Z,9.55
2023-05-24T05:09:36.477Z,9.58
2023-05-24T05:10:36.450Z,9.56
2023-05-24T05:11:36.426Z,9.55
2023-05-24T05:12:36.402Z,9.55
2023-05-24T05:13:36.399Z,9.56
2023-05-24T05:14:36.412Z,9.55
2023-05-24T05:15:36.401Z,9.56
2023-05-24T05:16:36.372Z,9.56
2023-05-24T05:17:36.373Z,9.56
2023-05-24T05:18:36.351Z,9.58
2023-05-24T05:19:36.341Z,9.59
2023-05-24T05:20:36.448Z,9.65
2023-05-24T05:21:36.339Z,9.68
2023-05-24T05:22:36.333Z,9.73
2023-05-24T05:23:36.317Z,9.77
2023-05-24T05:24:36.288Z,9.80
2023-05-24T05:25:36.303Z,9.80
2023-05-24T05:26:36.266Z,9.82
2023-05-24T05:27:36.264Z,9.84
2023-05-24T05:28:36.274Z,9.79
2023-05-24T05:29:36.255Z,9.80
2023-05-24T05:30:36.252Z,9.84
2023-05-24T05:31:36.256Z,9.86
2023-05-24T05:32:36.346Z,9.91
2023-05-24T05:33:36.232Z,9.92
2023-05-24T05:34:36.206Z,9.95
2023-05-24T05:35:36.181Z,9.97
2023-05-24T05:36:36.201Z,9.94
2023-05-24T05:37:36.181Z,9.92
2023-05-24T05:38:36.157Z,9.94
2023-05-24T05:39:36.144Z,9.94
2023-05-24T05:40:36.130Z,9.98
2023-05-24T05:41:36.134Z,9.97
2023-05-24T05:42:36.152Z,9.98
2023-05-24T05:43:36.088Z,10.01
2023-05-24T05:44:36.102Z,10.05
2023-05-24T05:45:36.081Z,10.10
2023-05-24T05:46:36.103Z,10.15
2023-05-24T05:47:36.121Z,10.20
2023-05-24T05:48:36.098Z,10.20
2023-05-24T05:49:36.032Z,10.20
2023-05-24T05:50:36.040Z,10.17
2023-05-24T05:51:36.028Z,10.16
2023-05-24T05:52:36.015Z,10.13
2023-05-24T05:53:35.999Z,10.12
2023-05-24T05:54:36.009Z,10.09
2023-05-24T05:55:36.008Z,10.09
2023-05-24T05:56:35.979Z,10.07
2023-05-24T05:57:35.973Z,10.02
2023-05-24T05:58:35.953Z,10.05
2023-05-24T05:59:36.624Z,10.12
2023-05-24T06:00:35.964Z,10.15
2023-05-24T06:01:35.925Z,10.19
2023-05-24T06:02:35.978Z,10.23
2023-05-24T06:03:35.954Z,10.23
2023-05-24T06:04:35.973Z,10.26
2023-05-24T06:05:35.870Z,10.23
2023-05-24T06:06:35.892Z,10.19
2023-05-24T06:07:35.865Z,10.22
2023-05-24T06:08:35.861Z,10.22
2023-05-24T06:09:35.839Z,10.26
2023-05-24T06:10:35.854Z,10.31
2023-05-24T06:11:35.871Z,10.34
2023-05-24T06:12:35.818Z,10.34
2023-05-24T06:13:35.793Z,10.37
2023-05-24T06:14:35.799Z,10.37
2023-05-24T06:15:35.764Z,10.35
2023-05-24T06:16:35.862Z,10.35
2023-05-24T06:17:35.767Z,10.35
2023-05-24T06:18:35.771Z,10.40
2023-05-24T06:19:35.731Z,10.42
2023-05-24T06:20:35.769Z,10.44
2023-05-24T06:21:35.727Z,10.48
2023-05-24T06:22:35.704Z,10.54
2023-05-24T06:23:35.685Z,10.60
2023-05-24T06:24:35.709Z,10.64
2023-05-24T06:25:35.682Z,10.68
2023-05-24T06:26:35.707Z,10.69
2023-05-24T06:27:35.654Z,10.71
2023-05-24T06:28:35.645Z,10.71
2023-05-24T06:29:35.635Z,10.64
2023-05-24T06:30:35.734Z,10.59
2023-05-24T06:31:35.941Z,10.59
2023-05-24T06:32:35.712Z,10.63
2023-05-24T06:33:37.771Z,10.67
2023-05-24T06:34:35.588Z,10.68
2023-05-24T06:35:35.579Z,10.71
2023-05-24T06:36:35.583Z,10.69
2023-05-24T06:37:35.556Z,10.64
2023-05-24T06:38:35.600Z,10.67
2023-05-24T06:39:35.522Z,10.71
2023-05-24T06:40:35.532Z,10.72
2023-05-24T06:41:35.517Z,10.68
2023-05-24T06:42:35.514Z,10.63
2023-05-24T06:43:35.491Z,10.61
2023-05-24T06:44:35.516Z,10.63
2023-05-24T06:45:35.469Z,10.61
2023-05-24T06:46:35.493Z,10.64
2023-05-24T06:47:35.498Z,10.60
2023-05-24T06:48:35.528Z,10.57
2023-05-24T06:49:35.457Z,10.57
2023-05-24T06:50:35.425Z,10.56
2023-05-24T06:51:35.422Z,10.56
2023-05-24T06:52:35.409Z,10.59
2023-05-24T06:53:35.389Z,10.64
2023-05-24T06:54:35.393Z,10.69
2023-05-24T06:55:35.386Z,10.76
2023-05-24T06:56:35.356Z,10.84
2023-05-24T06:57:35.354Z,10.89
2023-05-24T06:58:35.336Z,10.89
2023-05-24T06:59:35.320Z,10.94
2023-05-24T07:00:35.316Z,10.99
2023-05-24T07:01:35.360Z,11.02
2023-05-24T07:02:35.351Z,11.07
2023-05-24T07:03:35.296Z,11.12
2023-05-24T07:04:35.320Z,11.17
2023-05-24T07:05:35.265Z,11.23
2023-05-24T07:06:35.310Z,11.27
2023-05-24T07:07:35.268Z,11.32
2023-05-24T07:08:35.240Z,11.33
2023-05-24T07:09:35.228Z,11.36
2023-05-24T07:10:35.233Z,11.40
2023-05-24T07:11:35.236Z,11.40
2023-05-24T07:12:35.251Z,11.44
2023-05-24T07:13:35.199Z,11.44
2023-05-24T07:14:35.183Z,11.41
2023-05-24T07:15:35.158Z,11.40
2023-05-24T07:16:35.187Z,11.40
2023-05-24T07:17:35.228Z,11.37
2023-05-24T07:18:35.146Z,11.33
2023-05-24T07:19:35.142Z,11.32
2023-05-24T07:20:35.264Z,11.32
2023-05-24T07:21:35.105Z,11.35
2023-05-24T07:22:35.098Z,11.35
2023-05-24T07:23:35.115Z,11.37
2023-05-24T07:24:35.095Z,11.37
2023-05-24T07:25:35.100Z,11.43
2023-05-24T07:26:35.085Z,11.43
2023-05-24T07:27:35.042Z,11.44
2023-05-24T07:28:35.054Z,11.50
2023-05-24T07:29:35.015Z,11.48
2023-05-24T07:30:35.050Z,11.47
2023-05-24T07:31:35.023Z,11.44
2023-05-24T07:32:35.144Z,11.44
2023-05-24T07:33:35.030Z,11.48
2023-05-24T07:34:34.980Z,11.52
2023-05-24T07:35:34.955Z,11.52
2023-05-24T07:36:35.160Z,11.52
2023-05-24T07:37:34.930Z,11.57
2023-05-24T07:38:34.961Z,11.59
2023-05-24T07:39:34.907Z,11.62
2023-05-24T07:40:34.923Z,11.59
2023-05-24T07:41:34.912Z,11.59
2023-05-24T07:42:34.910Z,11.63
2023-05-24T07:43:34.928Z,11.65
2023-05-24T07:44:34.938Z,11.65
2023-05-24T07:45:34.903Z,11.63
2023-05-24T07:46:34.957Z,11.65
2023-05-24T07:47:34.859Z,11.63
2023-05-24T07:48:34.860Z,11.60
2023-05-24T07:49:34.829Z,11.59
2023-05-24T07:50:34.882Z,11.60
2023-05-24T07:51:34.807Z,11.63
2023-05-24T07:52:34.789Z,11.66
2023-05-24T07:53:34.812Z,11.68
2023-05-24T07:54:34.773Z,11.70
2023-05-24T07:55:34.782Z,11.72
2023-05-24T07:56:34.758Z,11.75
2023-05-24T07:57:34.735Z,11.77
2023-05-24T07:58:34.757Z,11.81
2023-05-24T07:59:34.723Z,11.86
2023-05-24T08:00:34.723Z,11.90
2023-05-24T08:01:34.712Z,11.95
2023-05-24T08:02:34.935Z,12.00
2023-05-24T08:03:34.762Z,12.00
2023-05-24T08:04:34.675Z,12.06
2023-05-24T08:05:34.681Z,12.07
2023-05-24T08:06:34.698Z,12.07
2023-05-24T08:07:34.660Z,12.15
2023-05-24T08:08:34.692Z,12.18
2023-05-24T08:09:34.634Z,12.22
2023-05-24T08:10:34.663Z,12.28
2023-05-24T08:11:34.605Z,12.27
2023-05-24T08:12:34.605Z,12.27
2023-05-24T08:13:34.611Z,12.22
2023-05-24T08:14:34.612Z,12.20
2023-05-24T08:15:34.564Z,12.22
2023-05-24T08:16:34.648Z,12.24
2023-05-24T08:17:34.554Z,12.28
2023-05-24T08:18:34.559Z,12.31
2023-05-24T08:19:34.542Z,12.36
2023-05-24T08:20:34.532Z,12.42
2023-05-24T08:21:34.500Z,12.45
2023-05-24T08:22:34.487Z,12.50
2023-05-24T08:23:34.518Z,12.55
2023-05-24T08:24:34.476Z,12.61
2023-05-24T08:25:34.497Z,12.54
2023-05-24T08:26:34.472Z,12.54
2023-05-24T08:27:34.446Z,12.54
2023-05-24T08:28:34.486Z,12.57
2023-05-24T08:29:34.455Z,12.57
2023-05-24T08:30:34.425Z,12.50
2023-05-24T08:31:34.504Z,12.49
2023-05-24T08:32:34.455Z,12.53
2023-05-24T08:33:34.373Z,12.54
2023-05-24T08:34:34.387Z,12.54
2023-05-24T08:35:34.359Z,12.55
2023-05-24T08:36:34.352Z,12.58
2023-05-24T08:37:34.350Z,12.62
2023-05-24T08:38:34.387Z,12.64
2023-05-24T08:39:34.315Z,12.61
2023-05-24T08:40:34.358Z,12.60
2023-05-24T08:41:34.290Z,12.60
2023-05-24T08:42:34.276Z,12.62
2023-05-24T08:43:34.267Z,12.62
2023-05-24T08:44:34.253Z,12.64
2023-05-24T08:45:34.255Z,12.62
2023-05-24T08:46:34.531Z,12.64
2023-05-24T08:47:34.373Z,12.64
2023-05-24T08:48:34.296Z,12.67
2023-05-24T08:49:34.236Z,12.67
2023-05-24T08:50:34.222Z,12.65
2023-05-24T08:51:34.226Z,12.65
2023-05-24T08:52:34.236Z,12.67
2023-05-24T08:53:34.178Z,12.67
2023-05-24T08:54:34.177Z,12.68
2023-05-24T08:55:34.148Z,12.70
2023-05-24T08:56:34.161Z,12.70
2023-05-24T08:57:34.133Z,12.65
2023-05-24T08:58:34.323Z,12.65
2023-05-24T08:59:34.126Z,12.62
2023-05-24T09:00:34.093Z,12.65
2023-05-24T09:01:35.424Z,12.65
2023-05-24T09:02:34.129Z,12.68
2023-05-24T09:03:34.280Z,12.68
2023-05-24T09:04:34.083Z,12.68
2023-05-24T09:05:34.073Z,12.72
2023-05-24T09:06:34.060Z,12.72
2023-05-24T09:07:34.030Z,12.72
2023-05-24T09:08:34.034Z,12.72
2023-05-24T09:09:34.009Z,12.73
2023-05-24T09:10:45.085Z,12.73
2023-05-24T09:11:34.010Z,12.72
2023-05-24T09:12:38.257Z,12.70
2023-05-24T09:13:34.071Z,12.72
2023-05-24T09:14:33.977Z,12.68
2023-05-24T09:15:33.963Z,12.70
2023-05-24T09:16:33.993Z,12.72
2023-05-24T09:17:34.068Z,12.62
2023-05-24T09:18:33.945Z,12.58
2023-05-24T09:19:33.951Z,12.60
2023-05-24T09:20:33.924Z,12.60
2023-05-24T09:21:33.899Z,12.62
2023-05-24T09:22:33.861Z,12.64
2023-05-24T09:23:33.878Z,12.65
2023-05-24T09:24:33.875Z,12.62
2023-05-24T09:25:33.872Z,12.60
2023-05-24T09:26:33.828Z,12.61
2023-05-24T09:27:33.850Z,12.62
2023-05-24T09:28:33.838Z,12.65
2023-05-24T09:29:34.100Z,12.67
2023-05-24T09:30:33.833Z,12.65
2023-05-24T09:31:33.872Z,12.68
2023-05-24T09:32:33.800Z,12.67
2023-05-24T09:33:33.779Z,12.68
2023-05-24T09:34:33.776Z,12.70
2023-05-24T09:35:33.770Z,12.76
2023-05-24T09:36:33.728Z,12.78
2023-05-24T09:37:33.712Z,12.82
2023-05-24T09:38:33.697Z,12.82
2023-05-24T09:39:33.744Z,12.80
2023-05-24T09:40:33.696Z,12.83
2023-05-24T09:41:33.689Z,12.82
2023-05-24T09:42:33.675Z,12.83
2023-05-24T09:43:33.680Z,12.86
2023-05-24T09:44:33.658Z,12.91
2023-05-24T09:45:33.661Z,12.97
2023-05-24T09:46:33.676Z,13.00
2023-05-24T09:47:33.686Z,13.03
2023-05-24T09:48:33.603Z,13.00
2023-05-24T09:49:33.606Z,13.01
2023-05-24T09:50:33.624Z,13.05
2023-05-24T09:51:33.605Z,13.15
2023-05-24T09:52:34.039Z,13.25
2023-05-24T09:53:33.561Z,13.38
2023-05-24T09:54:33.556Z,13.52
2023-05-24T09:55:33.565Z,13.62
2023-05-24T09:56:33.553Z,13.70
2023-05-24T09:57:33.542Z,13.75
2023-05-24T09:58:33.563Z,13.79
2023-05-24T09:59:33.491Z,13.86
2023-05-24T10:00:33.502Z,13.92
2023-05-24T10:01:33.544Z,13.95
2023-05-24T10:02:41.521Z,13.90
2023-05-24T10:03:33.503Z,13.95
2023-05-24T10:04:33.530Z,13.99
2023-05-24T10:05:33.459Z,14.08
2023-05-24T10:06:33.434Z,14.11
2023-05-24T10:07:33.450Z,14.15
2023-05-24T10:08:33.410Z,14.12
2023-05-24T10:09:33.414Z,14.11
2023-05-24T10:10:33.436Z,14.14
2023-05-24T10:11:33.375Z,14.18
2023-05-24T10:12:33.361Z,14.25
2023-05-24T10:13:33.348Z,14.30
2023-05-24T10:14:33.349Z,14.35
2023-05-24T10:15:33.393Z,14.40
2023-05-24T10:16:33.373Z,14.41
2023-05-24T10:17:33.398Z,14.44
2023-05-24T10:18:33.315Z,14.47
2023-05-24T10:19:33.296Z,14.51
2023-05-24T10:20:33.312Z,14.48
2023-05-24T10:21:33.371Z,14.48
2023-05-24T10:22:33.272Z,14.51
2023-05-24T10:23:33.260Z,14.55
2023-05-24T10:24:33.242Z,14.60
2023-05-24T10:25:33.222Z,14.62
2023-05-24T10:26:33.238Z,14.65
2023-05-24T10:27:33.202Z,14.70
2023-05-24T10:28:33.191Z,14.73
2023-05-24T10:29:33.201Z,14.79
2023-05-24T10:30:33.201Z,14.81
2023-05-24T10:31:33.260Z,14.81
2023-05-24T10:32:33.213Z,14.77
2023-05-24T10:33:33.172Z,14.81
2023-05-24T10:34:33.151Z,14.81
2023-05-24T10:35:33.135Z,14.78
2023-05-24T10:36:33.156Z,14.79
2023-05-24T10:37:33.120Z,14.84
2023-05-24T10:38:33.108Z,14.91
2023-05-24T10:39:33.078Z,15.00
2023-05-24T10:40:33.090Z,15.06
2023-05-24T10:41:33.112Z,15.14
2023-05-24T10:42:33.060Z,15.21
2023-05-24T10:43:33.055Z,15.25
2023-05-24T10:44:33.042Z,15.27
2023-05-24T10:45:33.058Z,15.33
2023-05-24T10:46:33.162Z,15.40
2023-05-24T10:47:33.026Z,15.46
2023-05-24T10:48:33.001Z,15.47
2023-05-24T10:49:32.986Z,15.51
2023-05-24T10:50:32.967Z,15.52
2023-05-24T10:51:32.987Z,15.58
2023-05-24T10:52:32.990Z,15.59
2023-05-24T10:53:32.979Z,15.64
2023-05-24T10:54:32.919Z,15.65
2023-05-24T10:55:32.926Z,15.72
2023-05-24T10:56:32.934Z,15.73
2023-05-24T10:57:32.936Z,15.61
2023-05-24T10:58:32.906Z,15.44
2023-05-24T10:59:32.893Z,15.29
2023-05-24T11:00:35.679Z,15.22
2023-05-24T11:01:32.915Z,15.25
2023-05-24T11:02:32.943Z,15.39
2023-05-24T11:03:32.879Z,15.49
2023-05-24T11:04:32.834Z,15.52
2023-05-24T11:05:32.922Z,15.61
2023-05-24T11:06:32.837Z,15.68
2023-05-24T11:07:32.822Z,15.72
2023-05-24T11:08:32.783Z,15.73
2023-05-24T11:09:32.789Z,15.76
2023-05-24T11:10:32.771Z,15.84
2023-05-24T11:11:32.842Z,15.92
2023-05-24T11:12:32.783Z,15.95
2023-05-24T11:13:32.747Z,16.01
2023-05-24T11:14:32.730Z,16.08
2023-05-24T11:15:32.751Z,16.13
2023-05-24T11:16:32.733Z,16.17
2023-05-24T11:17:32.744Z,16.28
2023-05-24T11:18:32.694Z,16.35
2023-05-24T11:19:32.701Z,16.36
2023-05-24T11:20:32.703Z,16.32
2023-05-24T11:21:32.658Z,16.20
2023-05-24T11:22:32.653Z,16.09
2023-05-24T11:23:32.664Z,16.05
2023-05-24T11:24:32.624Z,16.05
2023-05-24T11:25:32.630Z,16.08
2023-05-24T11:26:32.600Z,16.16
2023-05-24T11:27:32.623Z,16.23
2023-05-24T11:28:32.709Z,16.32
2023-05-24T11:29:32.583Z,16.32
2023-05-24T11:30:32.582Z,16.20
2023-05-24T11:31:32.590Z,16.12
2023-05-24T11:32:32.607Z,16.16
2023-05-24T11:33:32.567Z,16.26
2023-05-24T11:34:32.555Z,16.33
2023-05-24T11:35:32.519Z,16.39
2023-05-24T11:36:32.515Z,16.46
2023-05-24T11:37:45.465Z,16.42
2023-05-24T11:38:32.478Z,16.42
2023-05-24T11:39:32.497Z,16.49
2023-05-24T11:40:32.467Z,16.51
2023-05-24T11:41:32.445Z,16.51
2023-05-24T11:42:32.450Z,16.57
2023-05-24T11:43:32.441Z,16.57
2023-05-24T11:44:32.443Z,16.64
2023-05-24T11:45:32.497Z,16.71
2023-05-24T11:46:32.460Z,16.83
2023-05-24T11:47:32.633Z,16.93
2023-05-24T11:48:32.377Z,16.97
2023-05-24T11:49:32.404Z,17.06
2023-05-24T11:50:42.203Z,17.15
2023-05-24T11:51:32.402Z,17.12
2023-05-24T11:52:32.347Z,17.05
2023-05-24T11:53:32.335Z,17.04
2023-05-24T11:54:32.365Z,17.09
2023-05-24T11:55:32.317Z,17.15
2023-05-24T11:56:33.844Z,17.26
2023-05-24T11:57:32.300Z,17.36
2023-05-24T11:58:32.308Z,17.48
2023-05-24T11:59:32.293Z,17.52
2023-05-24T12:00:32.258Z,17.56
2023-05-24T12:01:32.239Z,17.57
2023-05-24T12:02:32.318Z,17.60
2023-05-24T12:03:32.433Z,17.57
2023-05-24T12:04:32.428Z,17.51
2023-05-24T12:05:32.197Z,17.49
2023-05-24T12:06:32.193Z,17.48
2023-05-24T12:07:32.207Z,17.48
2023-05-24T12:08:32.226Z,17.54
2023-05-24T12:09:32.177Z,17.57
2023-05-24T12:10:32.153Z,17.67
2023-05-24T12:11:32.183Z,17.68
2023-05-24T12:12:42.340Z,17.67
2023-05-24T12:13:32.122Z,17.68
2023-05-24T12:14:32.151Z,17.59
2023-05-24T12:15:32.232Z,17.56
2023-05-24T12:16:32.214Z,17.54
2023-05-24T12:17:32.112Z,17.46
2023-05-24T12:18:32.077Z,17.36
2023-05-24T12:19:33.976Z,17.38
2023-05-24T12:20:32.135Z,17.42
2023-05-24T12:21:32.055Z,17.56
2023-05-24T12:22:32.060Z,17.67
2023-05-24T12:23:32.065Z,17.71
2023-05-24T12:24:32.011Z,17.76
2023-05-24T12:25:32.012Z,17.72
2023-05-24T12:26:32.005Z,17.78
2023-05-24T12:27:31.986Z,17.79
2023-05-24T12:28:31.969Z,17.86
2023-05-24T12:29:31.966Z,17.89
2023-05-24T12:30:31.959Z,17.90
2023-05-24T12:31:32.020Z,17.87
2023-05-24T12:32:31.974Z,17.87
2023-05-24T12:33:31.932Z,17.79
2023-05-24T12:34:31.937Z,17.82
2023-05-24T12:35:31.955Z,17.87
2023-05-24T12:36:31.956Z,17.94
2023-05-24T12:37:31.886Z,17.98
2023-05-24T12:38:31.885Z,17.97
2023-05-24T12:39:32.193Z,17.94
2023-05-24T12:40:31.871Z,17.94
2023-05-24T12:41:31.871Z,17.85
2023-05-24T12:42:31.827Z,17.85
2023-05-24T12:43:31.817Z,17.89
2023-05-24T12:44:31.795Z,17.95
2023-05-24T12:45:31.798Z,18.00
2023-05-24T12:46:31.800Z,18.08
2023-05-24T12:47:31.846Z,18.18
2023-05-24T12:48:31.784Z,18.29
2023-05-24T12:49:31.786Z,18.40
2023-05-24T12:50:31.765Z,18.43
2023-05-24T12:51:31.778Z,18.45
2023-05-24T12:52:31.719Z,18.50
2023-05-24T12:53:31.730Z,18.50
2023-05-24T12:54:31.698Z,18.52
2023-05-24T12:55:31.706Z,18.58
2023-05-24T12:56:31.700Z,18.60
2023-05-24T12:57:31.687Z,18.59
2023-05-24T12:58:31.657Z,18.55
2023-05-24T12:59:31.744Z,18.53
2023-05-24T13:00:31.656Z,18.53
2023-05-24T13:01:31.675Z,18.52